Latest Weather Observations for Wattamolla

IDN60901

Issued at 12:21 am EST Monday 29 May 2017 (issued every 10 minutes, with the page automatically refreshed every 10 minutes)

About weather observations | Map of Sydney area stations | Latest observations for Sydney area | Other Formats
Station Details ID: 066208 Name: WATTAMOLLA AWS Lat: -34.14 Lon: 151.12 Height: 44.0 m
Data from the previous 72 hours. | See also: Recent months for locations in New South Wales
Date/Time
EST
Temp
°C
App
Temp
°C
Dew
Point
°C
Rel
Hum
%
Delta-T
°C
Wind Press
QNH
hPa
Press
MSL
hPa
Rain since
9am
mm
Dir  Spd
km/h
Gust
km/h
Spd
kts
Gust
kts
29/12:00am - - - - - W 17 22 9 12 - - -
 
Date/Time
EST
Temp
°C
App
Temp
°C
Dew
Point
°C
Rel
Hum
%
Delta-T
°C
Wind Press
QNH
hPa
Press
MSL
hPa
Rain since
9am
mm
Dir  Spd
km/h
Gust
km/h
Spd
kts
Gust
kts
28/11:30pm - - - - - W 20 26 11 14 - - -
28/11:00pm - - - - - W 20 30 11 16 - - -
28/10:30pm - - - - - WSW 22 30 12 16 - - -
28/10:00pm - - - - - WSW 19 26 10 14 - - -
28/09:30pm - - - - - W 19 22 10 12 - - -
28/09:00pm - - - - - W 19 26 10 14 - - -
28/08:30pm - - - - - W 15 24 8 13 - - -
28/08:00pm - - - - - WNW 15 20 8 11 - - -
28/07:30pm - - - - - WNW 19 26 10 14 - - -
28/07:00pm - - - - - WNW 17 22 9 12 - - -
28/06:30pm - - - - - W 22 32 12 17 - - -
28/06:00pm - - - - - NW 13 17 7 9 - - -
28/05:30pm - - - - - NNW 11 15 6 8 - - -
28/05:00pm - - - - - WNW 15 17 8 9 - - -
28/04:30pm - - - - - WNW 17 24 9 13 - - -
28/04:00pm - - - - - NNW 11 15 6 8 - - -
28/03:30pm - - - - - NNW 19 32 10 17 - - -
28/03:00pm - - - - - N 24 33 13 18 - - -
28/02:30pm - - - - - N 19 30 10 16 - - -
28/02:00pm - - - - - NNW 19 28 10 15 - - -
28/01:30pm - - - - - NNW 17 30 9 16 - - -
28/01:00pm - - - - - NNW 19 28 10 15 - - -
28/12:30pm - - - - - NNW 13 22 7 12 - - -
28/12:00pm - - - - - NNW 20 32 11 17 - - -
28/11:30am - - - - - N 24 33 13 18 - - -
28/11:00am - - - - - NNW 24 37 13 20 - - -
28/10:30am - - - - - NNW 22 32 12 17 - - -
28/10:00am - - - - - NNW 19 28 10 15 - - -
28/09:30am - - - - - NNW 22 33 12 18 - - -
28/09:00am - - - - - NNW 20 30 11 16 - - -
28/08:30am - - - - - NNW 15 24 8 13 - - -
28/08:00am - - - - - NW 13 22 7 12 - - -
28/07:30am - - - - - NW 19 28 10 15 - - -
28/07:00am - - - - - N 15 19 8 10 - - -
28/06:30am - - - - - NNW 13 17 7 9 - - -
28/06:00am - - - - - NW 13 20 7 11 - - -
28/05:30am - - - - - NNW 13 20 7 11 - - -
28/05:00am - - - - - NNW 15 19 8 10 - - -
28/04:30am - - - - - N 13 17 7 9 - - -
28/04:00am - - - - - N 9 11 5 6 - - -
28/03:30am - - - - - NW 9 11 5 6 - - -
28/03:00am - - - - - NNW 9 11 5 6 - - -
28/02:30am - - - - - NNW 9 15 5 8 - - -
28/02:00am - - - - - NNW 9 13 5 7 - - -
28/01:30am - - - - - NNW 17 22 9 12 - - -
28/01:00am - - - - - NNW 15 20 8 11 - - -
28/12:30am - - - - - NNW 15 22 8 12 - - -
28/12:00am - - - - - NNW 17 26 9 14 - - -
 
Date/Time
EST
Temp
°C
App
Temp
°C
Dew
Point
°C
Rel
Hum
%
Delta-T
°C
Wind Press
QNH
hPa
Press
MSL
hPa
Rain since
9am
mm
Dir  Spd
km/h
Gust
km/h
Spd
kts
Gust
kts
27/11:30pm - - - - - NNW 17 24 9 13 - - -
27/11:00pm - - - - - NNW 17 22 9 12 - - -
27/10:30pm - - - - - NNW 17 20 9 11 - - -
27/10:00pm - - - - - NNW 17 22 9 12 - - -
27/09:30pm - - - - - N 19 22 10 12 - - -
27/09:00pm - - - - - NNW 17 19 9 10 - - -
27/08:30pm - - - - - NNW 17 19 9 10 - - -
27/08:00pm - - - - - N 17 19 9 10 - - -
27/07:30pm - - - - - N 19 20 10 11 - - -
27/07:00pm - - - - - N 19 22 10 12 - - -
27/06:30pm - - - - - N 19 20 10 11 - - -
27/06:00pm - - - - - N 17 19 9 10 - - -
27/05:30pm - - - - - N 17 19 9 10 - - -
27/05:00pm - - - - - NNE 13 17 7 9 - - -
27/04:30pm - - - - - NNE 13 17 7 9 - - -
27/04:00pm - - - - - NE 13 19 7 10 - - -
27/03:30pm - - - - - NE 11 15 6 8 - - -
27/03:00pm - - - - - ESE 6 9 3 5 - - -
27/02:30pm - - - - - ESE 7 9 4 5 - - -
27/02:00pm - - - - - SE 7 9 4 5 - - -
27/01:30pm - - - - - SSE 11 15 6 8 - - -
27/01:00pm - - - - - SSE 13 17 7 9 - - -
27/12:30pm - - - - - SE 13 17 7 9 - - -
27/12:00pm - - - - - SSE 15 22 8 12 - - -
27/11:30am - - - - - SSE 17 20 9 11 - - -
27/11:00am - - - - - SSE 17 26 9 14 - - -
27/10:30am - - - - - SSE 13 19 7 10 - - -
27/10:00am - - - - - SSE 19 26 10 14 - - -
27/09:30am - - - - - SSE 17 26 9 14 - - -
27/09:00am - - - - - SSE 15 20 8 11 - - -
27/08:30am - - - - - SSW 13 20 7 11 - - -
27/08:00am - - - - - W 13 15 7 8 - - -
27/07:30am - - - - - WSW 13 15 7 8 - - -
27/07:00am - - - - - SW 15 17 8 9 - - -
27/06:30am - - - - - SSW 11 15 6 8 - - -
27/06:00am - - - - - W 13 17 7 9 - - -
27/05:30am - - - - - W 13 17 7 9 - - -
27/05:00am - - - - - WSW 13 17 7 9 - - -
27/04:30am - - - - - SW 11 17 6 9 - - -
27/04:00am - - - - - W 6 9 3 5 - - -
27/03:30am - - - - - WSW 7 13 4 7 - - -
27/03:00am - - - - - SE 9 17 5 9 - - -
27/02:30am - - - - - SSE 15 24 8 13 - - -
27/02:00am - - - - - SSE 17 20 9 11 - - -
27/01:30am - - - - - SSE 15 20 8 11 - - -
27/01:00am - - - - - SSE 20 28 11 15 - - -
27/12:30am - - - - - SSE 19 26 10 14 - - -
27/12:00am - - - - - SSE 20 26 11 14 - - -
 
Date/Time
EST
Temp
°C
App
Temp
°C
Dew
Point
°C
Rel
Hum
%
Delta-T
°C
Wind Press
QNH
hPa
Press
MSL
hPa
Rain since
9am
mm
Dir  Spd
km/h
Gust
km/h
Spd
kts
Gust
kts
26/11:30pm - - - - - SE 20 26 11 14 - - -
26/11:00pm - - - - - SE 20 26 11 14 - - -
26/10:30pm - - - - - SSE 19 26 10 14 - - -
26/10:00pm - - - - - SSE 20 28 11 15 - - -
26/09:30pm - - - - - SSE 24 32 13 17 - - -
26/09:00pm - - - - - SSE 22 32 12 17 - - -
26/08:30pm - - - - - SSE 26 33 14 18 - - -
26/08:00pm - - - - - SSE 24 37 13 20 - - -
26/07:30pm - - - - - SSE 24 35 13 19 - - -
26/07:00pm - - - - - SSE 24 37 13 20 - - -
26/06:30pm - - - - - SSE 24 32 13 17 - - -
26/06:00pm - - - - - SSE 22 30 12 16 - - -
26/05:30pm - - - - - SSE 24 32 13 17 - - -
26/05:00pm - - - - - SSE 28 35 15 19 - - -
26/04:41pm - - - - - SSE 35 54 19 29 - - -
26/04:30pm - - - - - SSE 28 33 15 18 - - -
26/04:00pm - - - - - SSE 30 35 16 19 - - -
26/03:30pm - - - - - SSE 30 35 16 19 - - -
26/03:00pm - - - - - SSE 28 33 15 18 - - -
26/02:30pm - - - - - SSE 26 35 14 19 - - -
26/02:00pm - - - - - SSE 26 32 14 17 - - -
26/01:30pm - - - - - SSE 26 32 14 17 - - -
26/01:00pm - - - - - SSE 20 30 11 16 - - -
26/12:30pm - - - - - SSE 17 20 9 11 - - -
26/12:00pm - - - - - SSE 11 17 6 9 - - -
26/11:30am - - - - - SSE 13 19 7 10 - - -
26/11:00am - - - - - S 11 17 6 9 - - -
26/10:30am - - - - - SSW 9 13 5 7 - - -
26/10:00am - - - - - S 9 13 5 7 - - -
26/09:30am - - - - - WSW 9 13 5 7 - - -
26/09:00am - - - - - W 13 19 7 10 - - -
26/08:30am - - - - - WNW 15 22 8 12 - - -
26/08:00am - - - - - WNW 15 19 8 10 - - -
26/07:30am - - - - - WNW 17 22 9 12 - - -
26/07:00am - - - - - W 20 26 11 14 - - -
26/06:30am - - - - - W 22 28 12 15 - - -
26/06:00am - - - - - W 22 30 12 16 - - -
26/05:30am - - - - - W 22 30 12 16 - - -
26/05:00am - - - - - W 22 26 12 14 - - -
26/04:30am - - - - - W 24 32 13 17 - - -
26/04:00am - - - - - W 22 30 12 16 - - -
26/03:30am - - - - - WNW 20 30 11 16 - - -
26/03:00am - - - - - WNW 19 28 10 15 - - -
26/02:30am - - - - - W 24 30 13 16 - - -
26/02:00am - - - - - W 24 30 13 16 - - -
26/01:30am - - - - - SW 9 15 5 8 - - -
26/01:00am - - - - - WNW 15 19 8 10 - - -
26/12:30am - - - - - WNW 19 22 10 12 - - -

Latest Capital City Observations: Canberra | Sydney | Melbourne | Brisbane | Adelaide | Perth | Hobart | Darwin

Other Formats:

Comma delimited format used in spreadsheet applications
http://www.bom.gov.au/fwo/IDN60901/IDN60901.95752.axf

JavaScript Object Notation format (JSON) in row-major order
http://www.bom.gov.au/fwo/IDN60901/IDN60901.95752.json